createdAt,value
2022-08-07T00:02:37.104Z,18.90
2022-08-07T00:07:20.765Z,18.56
2022-08-07T00:12:23.038Z,18.39
2022-08-07T00:17:27.587Z,18.37
2022-08-07T00:22:36.817Z,17.92
2022-08-07T00:27:53.125Z,18.32
2022-08-07T00:32:59.362Z,17.63
2022-08-07T00:38:01.375Z,17.72
2022-08-07T00:43:02.959Z,17.78
2022-08-07T00:48:10.327Z,17.78
2022-08-07T00:53:13.103Z,17.49
2022-08-07T00:58:14.774Z,17.24
2022-08-07T01:03:16.679Z,17.13
2022-08-07T01:08:18.401Z,17.47
2022-08-07T01:13:21.883Z,17.58
2022-08-07T01:18:24.847Z,17.53
2022-08-07T01:23:36.333Z,17.40
2022-08-07T01:28:45.912Z,17.17
2022-08-07T01:33:54.025Z,17.28
2022-08-07T01:39:00.953Z,17.11
2022-08-07T01:44:03.419Z,16.72
2022-08-07T01:49:08.399Z,16.93
2022-08-07T01:54:19.263Z,17.15
2022-08-07T01:59:43.778Z,16.50
2022-08-07T02:04:56.411Z,17.02
2022-08-07T02:10:04.312Z,17.11
2022-08-07T02:15:11.724Z,17.02
2022-08-07T02:20:20.037Z,16.88
2022-08-07T02:25:32.220Z,16.64
2022-08-07T02:30:50.608Z,16.81
2022-08-07T02:36:30.673Z,16.69
2022-08-07T02:41:21.825Z,16.25
2022-08-07T02:46:25.767Z,16.33
2022-08-07T02:51:42.492Z,16.35
2022-08-07T02:56:53.870Z,15.74
2022-08-07T03:01:56.412Z,16.41
2022-08-07T03:07:03.445Z,16.11
2022-08-07T03:12:22.670Z,16.18
2022-08-07T03:17:52.963Z,16.37
2022-08-07T03:22:57.764Z,16.04
2022-08-07T03:28:09.710Z,15.89
2022-08-07T03:33:22.940Z,16.09
2022-08-07T03:38:29.877Z,16.25
2022-08-07T03:43:37.303Z,16.23
2022-08-07T03:48:45.515Z,16.15
2022-08-07T03:54:33.671Z,16.19
2022-08-07T03:59:26.913Z,15.98
2022-08-07T04:04:29.053Z,16.35
2022-08-07T04:09:45.103Z,16.22
2022-08-07T04:14:54.384Z,16.23
2022-08-07T04:19:58.405Z,16.10
2022-08-07T04:25:02.433Z,16.06
2022-08-07T04:30:11.793Z,16.56
2022-08-07T04:35:25.514Z,16.15
2022-08-07T04:40:29.987Z,16.26
2022-08-07T04:46:01.648Z,16.45
2022-08-07T04:51:09.268Z,16.70
2022-08-07T04:58:10.351Z,16.63
2022-08-07T05:02:02.255Z,16.93
2022-08-07T05:07:36.882Z,16.86
2022-08-07T05:12:59.905Z,17.05
2022-08-07T05:18:09.198Z,17.18
2022-08-07T05:23:23.090Z,17.55
2022-08-07T05:28:33.230Z,17.58
2022-08-07T05:33:36.863Z,17.79
2022-08-07T05:39:01.206Z,17.92
2022-08-07T05:44:12.254Z,17.99
2022-08-07T05:49:17.366Z,18.28
2022-08-07T05:54:31.417Z,18.51
2022-08-07T05:59:57.812Z,18.36
2022-08-07T06:05:28.166Z,18.80
2022-08-07T06:10:33.867Z,18.59
2022-08-07T06:15:42.538Z,18.71
2022-08-07T06:20:49.831Z,18.88
2022-08-07T06:26:13.776Z,19.39
2022-08-07T06:31:16.277Z,18.89
2022-08-07T06:36:34.984Z,19.22
2022-08-07T06:42:02.510Z,19.31
2022-08-07T06:47:24.375Z,19.06
2022-08-07T06:52:35.977Z,19.50
2022-08-07T06:57:47.771Z,19.88
2022-08-07T07:03:01.315Z,20.30
2022-08-07T07:08:18.789Z,20.23
2022-08-07T07:13:43.562Z,20.65
2022-08-07T07:18:59.762Z,20.53
2022-08-07T07:24:10.324Z,20.93
2022-08-07T07:29:39.251Z,20.88
2022-08-07T07:34:39.606Z,20.67
2022-08-07T07:39:52.535Z,21.15
2022-08-07T07:44:58.739Z,21.23
2022-08-07T07:50:35.221Z,20.99
2022-08-07T07:55:24.052Z,21.16
2022-08-07T08:00:29.555Z,21.27
2022-08-07T08:05:54.252Z,21.52
2022-08-07T08:10:57.260Z,21.82
2022-08-07T08:16:01.884Z,21.82
2022-08-07T08:21:04.064Z,22.07
2022-08-07T08:26:28.739Z,22.08
2022-08-07T08:31:59.025Z,22.23
2022-08-07T08:37:09.926Z,22.47
2022-08-07T08:42:46.911Z,22.64
2022-08-07T08:48:08.753Z,22.91
2022-08-07T08:53:22.643Z,22.64
2022-08-07T08:58:30.044Z,22.74
2022-08-07T09:03:49.729Z,22.93
2022-08-07T09:09:13.557Z,22.67
2022-08-07T09:14:41.593Z,22.65
2022-08-07T09:19:56.511Z,22.83
2022-08-07T09:25:17.555Z,22.85
2022-08-07T09:30:20.736Z,22.95
2022-08-07T09:36:04.709Z,23.10
2022-08-07T09:41:58.638Z,22.79
2022-08-07T09:47:49.911Z,22.90
2022-08-07T09:52:53.872Z,22.73
2022-08-07T09:57:58.847Z,22.89
2022-08-07T10:03:08.511Z,22.96
2022-08-07T10:08:39.518Z,23.20
2022-08-07T10:14:01.294Z,22.99
2022-08-07T10:19:37.734Z,22.86
2022-08-07T10:24:46.306Z,23.03
2022-08-07T10:30:06.565Z,23.07
2022-08-07T10:35:55.289Z,23.02
2022-08-07T10:40:56.425Z,22.92
2022-08-07T10:46:00.830Z,22.89
2022-08-07T10:51:16.784Z,22.82
2022-08-07T10:57:09.795Z,22.79
2022-08-07T11:02:33.410Z,22.82
2022-08-07T11:07:58.899Z,22.75
2022-08-07T11:14:43.389Z,22.77
2022-08-07T11:18:39.720Z,22.58
2022-08-07T11:23:52.698Z,22.68
2022-08-07T11:29:42.152Z,22.80
2022-08-07T11:34:49.236Z,22.69
2022-08-07T11:40:28.574Z,22.73
2022-08-07T11:45:36.486Z,22.67
2022-08-07T11:50:57.854Z,22.87
2022-08-07T11:56:26.950Z,22.95
2022-08-07T12:02:00.119Z,22.79
2022-08-07T12:07:17.307Z,22.88
2022-08-07T12:12:28.284Z,22.81
2022-08-07T12:17:58.617Z,22.81
2022-08-07T12:23:14.506Z,22.88
2022-08-07T12:28:33.477Z,22.95
2022-08-07T12:34:01.174Z,22.84
2022-08-07T12:38:57.866Z,22.95
2022-08-07T12:44:04.067Z,22.89
2022-08-07T12:49:25.315Z,22.92
2022-08-07T12:55:03.972Z,22.88
2022-08-07T13:00:16.263Z,23.04
2022-08-07T13:06:03.598Z,23.04
2022-08-07T13:11:24.936Z,23.04
2022-08-07T13:16:31.634Z,22.89
2022-08-07T13:22:06.146Z,23.00
2022-08-07T13:28:05.467Z,23.07
2022-08-07T13:34:29.795Z,23.08
2022-08-07T13:38:36.166Z,23.09
2022-08-07T13:43:52.511Z,23.17
2022-08-07T13:48:59.547Z,23.23
2022-08-07T13:54:07.175Z,23.25
2022-08-07T13:59:33.223Z,23.26
2022-08-07T14:04:49.427Z,23.26
2022-08-07T14:10:02.659Z,23.21
2022-08-07T14:15:31.636Z,23.28
2022-08-07T14:20:44.388Z,23.19
2022-08-07T14:26:11.306Z,23.31
2022-08-07T14:31:43.440Z,23.36
2022-08-07T14:36:56.202Z,23.25
2022-08-07T14:42:19.553Z,23.22
2022-08-07T14:47:23.503Z,23.23
2022-08-07T14:52:30.959Z,23.25
2022-08-07T14:57:58.526Z,23.31
2022-08-07T15:02:57.541Z,23.30
2022-08-07T15:07:59.915Z,23.27
2022-08-07T15:13:11.379Z,23.38
2022-08-07T15:25:16.237Z,23.38
2022-08-07T15:30:06.372Z,23.47
2022-08-07T15:34:26.144Z,23.42
2022-08-07T15:39:28.787Z,23.37
2022-08-07T15:44:52.199Z,23.41
2022-08-07T15:50:05.326Z,23.30
2022-08-07T15:55:12.224Z,23.41
2022-08-07T16:00:31.847Z,23.39
2022-08-07T16:05:37.418Z,23.34
2022-08-07T16:10:42.551Z,23.34
2022-08-07T16:15:57.303Z,23.37
2022-08-07T16:22:01.384Z,23.29
2022-08-07T16:27:03.501Z,23.28
2022-08-07T16:32:35.068Z,23.36
2022-08-07T16:38:18.761Z,23.31
2022-08-07T16:44:03.701Z,23.27
2022-08-07T16:50:20.232Z,23.30
2022-08-07T16:54:58.435Z,23.30
2022-08-07T17:00:29.410Z,23.18
2022-08-07T17:06:26.545Z,23.30
2022-08-07T17:11:21.506Z,23.36
2022-08-07T17:16:25.038Z,23.23
2022-08-07T17:21:50.914Z,23.14
2022-08-07T17:27:05.252Z,23.20
2022-08-07T17:32:30.328Z,23.10
2022-08-07T17:38:08.152Z,23.08
2022-08-07T17:43:21.986Z,23.04
2022-08-07T17:49:10.850Z,22.95
2022-08-07T17:54:29.689Z,22.96
2022-08-07T17:59:42.561Z,22.91
2022-08-07T18:04:51.982Z,22.90
2022-08-07T18:10:06.197Z,22.87
2022-08-07T18:15:14.811Z,22.79
2022-08-07T18:21:06.462Z,22.71
2022-08-07T18:25:49.523Z,22.64
2022-08-07T18:31:12.096Z,22.60
2022-08-07T18:36:33.181Z,22.63
2022-08-07T18:41:46.920Z,22.51
2022-08-07T18:47:21.101Z,22.48
2022-08-07T18:52:54.196Z,22.33
2022-08-07T18:58:02.164Z,22.27
2022-08-07T19:03:15.828Z,22.17
2022-08-07T19:08:40.049Z,22.16
2022-08-07T19:13:45.255Z,22.14
2022-08-07T19:19:03.005Z,22.04
2022-08-07T19:24:10.920Z,21.92
2022-08-07T19:30:58.757Z,21.94
2022-08-07T19:34:38.826Z,21.80
2022-08-07T19:39:56.275Z,21.83
2022-08-07T19:45:09.608Z,21.76
2022-08-07T19:50:41.602Z,21.70
2022-08-07T19:55:56.771Z,21.63
2022-08-07T20:00:57.144Z,21.54
2022-08-07T20:06:03.006Z,21.58
2022-08-07T20:11:12.244Z,21.46
2022-08-07T20:16:35.005Z,21.35
2022-08-07T20:21:47.591Z,21.43
2022-08-07T20:26:54.869Z,21.25
2022-08-07T20:31:59.846Z,21.24
2022-08-07T20:37:05.540Z,21.27
2022-08-07T20:42:11.183Z,21.28
2022-08-07T20:47:14.662Z,21.16
2022-08-07T20:52:17.732Z,21.18
2022-08-07T20:57:28.810Z,21.10
2022-08-07T21:02:55.077Z,21.06
2022-08-07T21:08:01.012Z,20.97
2022-08-07T21:13:07.604Z,20.94
2022-08-07T21:18:17.569Z,20.91
2022-08-07T21:23:50.204Z,20.88
2022-08-07T21:28:58.210Z,20.79
2022-08-07T21:34:08.131Z,20.81
2022-08-07T21:39:45.433Z,20.58
2022-08-07T21:44:55.390Z,20.59
2022-08-07T21:50:14.604Z,20.52
2022-08-07T21:55:27.831Z,20.52
2022-08-07T22:00:32.471Z,20.47
2022-08-07T22:05:49.749Z,20.35
2022-08-07T22:10:55.348Z,20.20
2022-08-07T22:16:38.768Z,20.40
2022-08-07T22:22:01.837Z,20.29
2022-08-07T22:27:04.902Z,20.21
2022-08-07T22:32:30.781Z,20.22
2022-08-07T22:38:02.953Z,20.00
2022-08-07T22:43:33.889Z,20.00
2022-08-07T22:49:06.560Z,19.86
2022-08-07T22:54:34.444Z,19.89
2022-08-07T22:59:51.897Z,19.72
2022-08-07T23:06:07.670Z,19.66
2022-08-07T23:10:41.293Z,19.66
2022-08-07T23:16:48.499Z,19.59
2022-08-07T23:21:58.718Z,19.49
2022-08-07T23:27:33.856Z,19.42
2022-08-07T23:34:35.634Z,19.47
2022-08-07T23:38:44.748Z,19.40
2022-08-07T23:44:09.621Z,19.37
2022-08-07T23:49:50.095Z,19.24
2022-08-07T23:55:02.261Z,19.24
